This is the latest recevied weather packets stored in our database for station/object KB3HHA-13. If no packets are shown the sender has not sent any weather packets the latest 1 day(s).
| Time | Temp. | Humidity | Pressure | Rain* | Wind** | Luminosity | Snow |
|---|---|---|---|---|---|---|---|
| 1778085723 | 17.78° C | 89% | 1008.5 hPa | 0 mm | - | - | - |
| 1778085121 | 17.78° C | 90% | 1008.6 hPa | 0 mm | - | - | - |
| 1778083921 | 17.22° C | 92% | 1008.7 hPa | 0 mm | - | - | - |
| 1778082122 | 16.67° C | 93% | 1008.7 hPa | 0 mm | - | - | - |
| 1778081820 | 16.67° C | 94% | 1008.7 hPa | 0 mm | - | - | - |
| 1778078220 | 16.11° C | 94% | 1009.7 hPa | 1.27 mm | - | - | - |
| 1778077322 | 16.11° C | 94% | 1009.6 hPa | 0.25 mm | - | - | - |
| 1778076721 | 16.11° C | 94% | 1009.5 hPa | 0.25 mm | - | - | - |
| 1778075822 | 16.11° C | 94% | 1009.4 hPa | 1.78 mm | - | - | - |
| 1778075222 | 16.11° C | 93% | 1009.3 hPa | 1.52 mm | - | - | - |
| 1778074621 | 16.11° C | 93% | 1009.6 hPa | 1.27 mm | - | - | - |
| 1778074322 | 16.11° C | 93% | 1009.6 hPa | 1.02 mm | - | - | - |
| 1778073122 | 16.11° C | 93% | 1010 hPa | 0.25 mm | - | - | - |
| 1778072822 | 16.11° C | 93% | 1010.1 hPa | 0.25 mm | - | - | - |
| 1778071922 | 16.11° C | 92% | 1009.7 hPa | 1.27 mm | - | - | - |
| 1778070422 | 16.67° C | 90% | 1009.4 hPa | 1.02 mm | - | - | - |
| 1778069522 | 16.67° C | 88% | 1009.7 hPa | 0.25 mm | - | - | - |
| 1778068322 | 17.22° C | 84% | 1009.9 hPa | 0.51 mm | - | - | - |
| 1778067422 | 18.33° C | 79% | 1009.9 hPa | 0.25 mm | - | - | - |
| 1778066822 | 18.33° C | 77% | 1009.8 hPa | 0 mm | - | - | - |
| 1778066221 | 18.89° C | 75% | 1009.5 hPa | 0 mm | - | - | - |
| 1778065921 | 18.89° C | 74% | 1009.4 hPa | 0 mm | - | - | - |
| 1778063220 | 18.89° C | 71% | 1008.8 hPa | 0 mm | - | - | - |
| 1778062921 | 19.44° C | 70% | 1008.9 hPa | 0 mm | - | - | - |
| 1778062321 | 19.44° C | 70% | 1008.8 hPa | 0 mm | - | - | - |
* Rain latest hour (hover to see other rain measurements)
** Current wind speed in m/s (hover to see current wind gust speed)